createdAt,value
2022-10-08T00:01:56.207Z,3.17
2022-10-08T00:03:58.596Z,2.75
2022-10-08T00:06:05.545Z,2.55
2022-10-08T00:08:08.530Z,2.85
2022-10-08T00:10:10.797Z,2.72
2022-10-08T00:12:15.554Z,2.80
2022-10-08T00:14:18.415Z,2.65
2022-10-08T00:16:22.763Z,2.60
2022-10-08T00:18:25.240Z,3.13
2022-10-08T00:20:27.496Z,3.08
2022-10-08T00:22:29.869Z,2.63
2022-10-08T00:24:32.226Z,2.65
2022-10-08T00:26:39.760Z,3.05
2022-10-08T00:28:46.617Z,2.95
2022-10-08T00:30:48.856Z,2.80
2022-10-08T00:32:51.112Z,2.28
2022-10-08T00:34:53.381Z,2.60
2022-10-08T00:36:56.187Z,2.60
2022-10-08T00:38:59.292Z,2.97
2022-10-08T00:41:01.640Z,2.35
2022-10-08T00:43:03.921Z,2.80
2022-10-08T00:45:07.659Z,2.78
2022-10-08T00:47:36.829Z,2.70
2022-10-08T00:49:39.094Z,2.60
2022-10-08T00:51:44.121Z,2.70
2022-10-08T00:53:47.302Z,2.88
2022-10-08T00:55:50.458Z,2.85
2022-10-08T00:57:53.280Z,2.85
2022-10-08T00:59:56.501Z,2.53
2022-10-08T01:01:58.803Z,2.78
2022-10-08T01:04:03.305Z,2.53
2022-10-08T01:06:05.632Z,2.90
2022-10-08T01:08:25.916Z,2.55
2022-10-08T01:10:33.863Z,3.28
2022-10-08T01:12:52.666Z,2.20
2022-10-08T01:15:00.401Z,2.88
2022-10-08T01:17:26.902Z,2.67
2022-10-08T01:19:29.758Z,3.00
2022-10-08T01:21:31.976Z,2.45
2022-10-08T01:23:43.296Z,2.90
2022-10-08T01:26:04.342Z,2.47
2022-10-08T01:28:25.126Z,2.78
2022-10-08T01:30:28.115Z,2.47
2022-10-08T01:32:35.021Z,2.58
2022-10-08T01:34:43.416Z,2.90
2022-10-08T01:36:47.033Z,2.45
2022-10-08T01:38:52.176Z,2.50
2022-10-08T01:40:59.010Z,2.60
2022-10-08T01:43:02.222Z,2.75
2022-10-08T01:45:06.897Z,2.50
2022-10-08T01:47:11.187Z,3.00
2022-10-08T01:49:15.022Z,2.50
2022-10-08T01:51:32.458Z,2.50
2022-10-08T01:53:37.684Z,2.65
2022-10-08T01:55:41.585Z,2.85
2022-10-08T01:57:44.281Z,2.40
2022-10-08T01:59:58.029Z,2.88
2022-10-08T02:02:02.496Z,3.17
2022-10-08T02:04:23.838Z,2.38
2022-10-08T02:06:27.016Z,2.53
2022-10-08T02:08:29.290Z,2.35
2022-10-08T02:10:31.666Z,2.50
2022-10-08T02:12:33.936Z,2.50
2022-10-08T02:14:38.645Z,2.60
2022-10-08T02:16:47.329Z,2.83
2022-10-08T02:18:56.363Z,2.60
2022-10-08T02:20:58.926Z,2.30
2022-10-08T02:23:15.983Z,2.58
2022-10-08T02:25:23.863Z,2.65
2022-10-08T02:27:30.098Z,2.40
2022-10-08T02:29:38.349Z,2.35
2022-10-08T02:31:43.773Z,2.40
2022-10-08T02:33:52.347Z,2.40
2022-10-08T02:38:00.351Z,2.60
2022-10-08T02:40:05.695Z,2.20
2022-10-08T02:42:11.300Z,2.22
2022-10-08T02:44:17.146Z,2.17
2022-10-08T02:46:21.167Z,2.60
2022-10-08T02:48:27.743Z,2.50
2022-10-08T02:50:31.155Z,2.58
2022-10-08T02:52:39.478Z,2.55
2022-10-08T02:54:42.902Z,2.75
2022-10-08T02:57:05.860Z,2.40
2022-10-08T02:59:11.978Z,2.45
2022-10-08T03:01:16.943Z,2.10
2022-10-08T03:03:27.561Z,2.40
2022-10-08T03:05:29.898Z,2.60
2022-10-08T03:07:33.222Z,2.40
2022-10-08T03:09:38.078Z,2.47
2022-10-08T03:11:40.622Z,2.22
2022-10-08T03:13:45.780Z,2.20
2022-10-08T03:15:51.617Z,2.67
2022-10-08T03:17:54.190Z,2.30
2022-10-08T03:19:56.453Z,2.38
2022-10-08T03:21:58.684Z,2.20
2022-10-08T03:24:00.940Z,2.38
2022-10-08T03:26:03.214Z,2.15
2022-10-08T03:28:05.518Z,2.38
2022-10-08T03:30:08.140Z,2.40
2022-10-08T03:32:10.557Z,2.40
2022-10-08T03:34:12.766Z,2.38
2022-10-08T03:36:15.078Z,2.67
2022-10-08T03:38:17.530Z,2.75
2022-10-08T03:40:19.968Z,2.47
2022-10-08T03:42:22.197Z,2.45
2022-10-08T03:44:24.479Z,2.45
2022-10-08T03:46:26.791Z,2.10
2022-10-08T03:48:29.250Z,2.35
2022-10-08T03:50:31.537Z,2.10
2022-10-08T03:52:33.796Z,2.47
2022-10-08T03:54:36.600Z,2.20
2022-10-08T03:56:38.843Z,2.40
2022-10-08T03:58:41.135Z,2.42
2022-10-08T04:00:43.408Z,2.35
2022-10-08T04:02:50.246Z,2.25
2022-10-08T04:04:52.940Z,2.25
2022-10-08T04:06:55.177Z,2.20
2022-10-08T04:09:01.111Z,2.38
2022-10-08T04:11:07.428Z,2.00
2022-10-08T04:13:09.883Z,2.40
2022-10-08T04:15:12.257Z,2.25
2022-10-08T04:17:14.570Z,2.00
2022-10-08T04:19:17.873Z,2.50
2022-10-08T04:21:20.275Z,2.25
2022-10-08T04:23:22.545Z,2.30
2022-10-08T04:25:24.911Z,2.20
2022-10-08T04:27:27.286Z,2.38
2022-10-08T04:29:29.510Z,2.25
2022-10-08T04:31:31.808Z,2.20
2022-10-08T04:33:34.866Z,2.20
2022-10-08T04:35:40.057Z,2.08
2022-10-08T04:37:42.323Z,2.15
2022-10-08T04:39:44.569Z,2.10
2022-10-08T04:41:46.812Z,2.35
2022-10-08T04:43:49.182Z,2.58
2022-10-08T04:45:51.461Z,2.10
2022-10-08T04:47:53.847Z,2.53
2022-10-08T04:49:56.121Z,2.15
2022-10-08T04:51:58.385Z,2.35
2022-10-08T04:54:01.737Z,2.40
2022-10-08T04:56:11.656Z,2.60
2022-10-08T04:58:13.876Z,2.00
2022-10-08T05:00:18.760Z,2.13
2022-10-08T05:02:21.478Z,2.28
2022-10-08T05:04:24.101Z,2.58
2022-10-08T05:06:28.383Z,2.60
2022-10-08T05:08:30.654Z,2.58
2022-10-08T05:10:32.903Z,2.47
2022-10-08T05:12:35.136Z,2.50
2022-10-08T05:14:37.374Z,2.17
2022-10-08T05:16:39.623Z,2.45
2022-10-08T05:18:42.314Z,2.25
2022-10-08T05:20:44.563Z,2.05
2022-10-08T05:22:47.659Z,2.13
2022-10-08T05:24:50.094Z,2.28
2022-10-08T05:26:59.626Z,2.10
2022-10-08T05:29:02.214Z,2.50
2022-10-08T05:31:04.554Z,2.13
2022-10-08T05:33:06.904Z,2.28
2022-10-08T05:35:09.365Z,2.28
2022-10-08T05:37:11.611Z,2.58
2022-10-08T05:39:14.049Z,2.15
2022-10-08T05:41:21.622Z,2.35
2022-10-08T05:43:23.901Z,2.42
2022-10-08T05:45:26.239Z,2.33
2022-10-08T05:47:28.504Z,2.42
2022-10-08T05:49:30.792Z,2.30
2022-10-08T05:51:33.389Z,2.50
2022-10-08T05:53:39.301Z,2.20
2022-10-08T05:55:41.605Z,2.10
2022-10-08T05:57:43.846Z,2.25
2022-10-08T05:59:46.100Z,2.08
2022-10-08T06:01:48.450Z,2.28
2022-10-08T06:03:51.603Z,2.53
2022-10-08T06:05:54.322Z,2.13
2022-10-08T06:07:59.791Z,2.22
2022-10-08T06:10:02.012Z,2.30
2022-10-08T06:12:04.321Z,2.13
2022-10-08T06:14:07.237Z,2.25
2022-10-08T06:16:11.098Z,2.40
2022-10-08T06:18:13.424Z,2.10
2022-10-08T06:20:15.740Z,1.95
2022-10-08T06:22:17.979Z,2.30
2022-10-08T06:24:20.327Z,2.30
2022-10-08T06:26:23.320Z,2.22
2022-10-08T06:28:25.575Z,2.35
2022-10-08T06:30:27.998Z,2.45
2022-10-08T06:32:30.316Z,2.13
2022-10-08T06:34:32.529Z,2.40
2022-10-08T06:36:37.156Z,2.25
2022-10-08T06:38:39.485Z,2.05
2022-10-08T06:40:41.710Z,2.08
2022-10-08T06:42:44.230Z,2.33
2022-10-08T06:44:46.827Z,2.40
2022-10-08T06:46:49.127Z,2.05
2022-10-08T06:48:51.426Z,2.40
2022-10-08T06:51:00.658Z,2.35
2022-10-08T06:53:04.032Z,2.30
2022-10-08T06:55:06.403Z,2.42
2022-10-08T06:57:08.635Z,2.38
2022-10-08T06:59:10.916Z,2.45
2022-10-08T07:01:14.532Z,2.40
2022-10-08T07:03:16.842Z,2.28
2022-10-08T07:05:19.573Z,2.25
2022-10-08T07:07:21.828Z,2.22
2022-10-08T07:09:24.543Z,2.45
2022-10-08T07:11:27.384Z,2.20
2022-10-08T07:13:29.861Z,2.35
2022-10-08T07:15:33.173Z,2.45
2022-10-08T07:17:35.518Z,2.30
2022-10-08T07:19:37.744Z,2.10
2022-10-08T07:21:40.784Z,2.25
2022-10-08T07:23:43.221Z,2.40
2022-10-08T07:25:55.029Z,2.00
2022-10-08T07:27:57.327Z,2.33
2022-10-08T07:29:59.663Z,2.00
2022-10-08T07:32:02.017Z,2.05
2022-10-08T07:34:08.699Z,2.40
2022-10-08T07:36:12.686Z,2.42
2022-10-08T07:38:18.856Z,2.38
2022-10-08T07:40:21.085Z,2.17
2022-10-08T07:42:23.329Z,1.92
2022-10-08T07:44:25.628Z,2.33
2022-10-08T07:46:29.559Z,2.50
2022-10-08T07:48:34.261Z,2.22
2022-10-08T07:50:36.761Z,2.30
2022-10-08T07:52:38.989Z,2.50
2022-10-08T07:54:42.632Z,2.17
2022-10-08T07:56:45.041Z,2.28
2022-10-08T07:58:47.749Z,2.10
2022-10-08T08:00:58.173Z,2.28
2022-10-08T08:03:00.495Z,2.28
2022-10-08T08:05:02.834Z,2.08
2022-10-08T08:07:05.588Z,2.20
2022-10-08T08:09:07.907Z,2.45
2022-10-08T08:11:11.485Z,1.80
2022-10-08T08:13:14.015Z,2.50
2022-10-08T08:15:16.294Z,2.20
2022-10-08T08:17:18.590Z,2.30
2022-10-08T08:19:20.890Z,2.33
2022-10-08T08:21:24.641Z,2.50
2022-10-08T08:23:31.057Z,2.38
2022-10-08T08:25:33.799Z,2.45
2022-10-08T08:27:36.101Z,1.95
2022-10-08T08:29:38.467Z,2.00
2022-10-08T08:31:44.674Z,2.28
2022-10-08T08:33:51.093Z,2.30
2022-10-08T08:35:55.629Z,1.98
2022-10-08T08:37:57.884Z,2.08
2022-10-08T08:40:00.212Z,1.85
2022-10-08T08:42:05.364Z,2.00
2022-10-08T08:44:12.567Z,2.20
2022-10-08T08:46:18.233Z,2.10
2022-10-08T08:48:22.799Z,2.38
2022-10-08T08:50:29.560Z,2.20
2022-10-08T08:52:36.288Z,2.17
2022-10-08T08:54:38.656Z,2.20
2022-10-08T08:56:41.142Z,2.05
2022-10-08T08:58:45.949Z,2.40
2022-10-08T09:00:52.591Z,2.17
2022-10-08T09:02:57.568Z,1.85
2022-10-08T09:05:02.709Z,2.00
2022-10-08T09:07:06.414Z,1.77
2022-10-08T09:09:25.049Z,2.00
2022-10-08T09:11:29.658Z,2.08
2022-10-08T09:13:43.476Z,1.90
2022-10-08T09:15:46.969Z,1.98
2022-10-08T09:17:52.130Z,2.00
2022-10-08T09:19:54.542Z,1.73
2022-10-08T09:21:56.851Z,1.92
2022-10-08T09:23:59.450Z,2.03
2022-10-08T09:26:10.784Z,1.83
2022-10-08T09:28:33.012Z,1.80
2022-10-08T09:30:36.833Z,2.08
2022-10-08T09:32:39.827Z,1.90
2022-10-08T09:34:43.277Z,1.80
2022-10-08T09:36:45.565Z,2.08
2022-10-08T09:38:47.820Z,2.00
2022-10-08T09:41:10.338Z,1.80
2022-10-08T09:43:14.377Z,1.73
2022-10-08T09:45:31.655Z,2.03
2022-10-08T09:47:34.011Z,1.85
2022-10-08T09:49:39.809Z,1.70
2022-10-08T09:51:42.893Z,1.75
2022-10-08T09:53:50.581Z,1.90
2022-10-08T09:55:58.005Z,1.90
2022-10-08T09:58:00.761Z,1.77
2022-10-08T10:00:06.170Z,1.92
2022-10-08T10:02:24.533Z,1.55
2022-10-08T10:06:36.568Z,1.52
2022-10-08T10:08:51.287Z,1.65
2022-10-08T10:10:53.685Z,1.95
2022-10-08T10:12:59.428Z,2.20
2022-10-08T10:15:13.289Z,2.13
2022-10-08T10:17:30.656Z,1.90
2022-10-08T10:19:40.624Z,1.80
2022-10-08T10:21:46.320Z,1.75
2022-10-08T10:24:07.476Z,1.60
2022-10-08T10:26:11.491Z,2.08
2022-10-08T10:28:13.949Z,2.00
2022-10-08T10:30:21.065Z,1.80
2022-10-08T10:32:30.981Z,2.13
2022-10-08T10:34:35.941Z,1.95
2022-10-08T10:36:48.436Z,1.70
2022-10-08T10:39:04.003Z,1.80
2022-10-08T10:41:09.012Z,1.80
2022-10-08T10:43:11.264Z,1.90
2022-10-08T10:45:22.597Z,1.83
2022-10-08T10:47:31.670Z,1.50
2022-10-08T10:49:38.442Z,1.77
2022-10-08T10:51:46.990Z,1.83
2022-10-08T10:55:58.053Z,1.75
2022-10-08T11:00:07.659Z,1.55
2022-10-08T11:02:14.136Z,1.27
2022-10-08T11:04:39.478Z,1.23
2022-10-08T11:07:00.347Z,2.47
2022-10-08T11:09:21.458Z,2.03
2022-10-08T11:11:33.329Z,1.70
2022-10-08T11:13:53.700Z,1.77
2022-10-08T11:15:56.008Z,1.63
2022-10-08T11:17:58.233Z,1.40
2022-10-08T11:20:19.101Z,1.52
2022-10-08T11:22:21.351Z,2.10
2022-10-08T11:24:35.711Z,1.80
2022-10-08T11:26:44.018Z,1.63
2022-10-08T11:28:49.539Z,1.50
2022-10-08T11:31:03.941Z,1.60
2022-10-08T11:33:07.127Z,1.70
2022-10-08T11:35:12.548Z,1.60
2022-10-08T11:37:14.807Z,1.63
2022-10-08T11:39:21.171Z,1.77
2022-10-08T11:41:23.429Z,1.75
2022-10-08T11:43:25.661Z,1.30
2022-10-08T11:45:32.674Z,1.90
2022-10-08T11:47:44.210Z,1.40
2022-10-08T11:49:50.591Z,1.50
2022-10-08T11:51:53.588Z,1.88
2022-10-08T11:54:04.966Z,1.60
2022-10-08T11:56:10.780Z,1.20
2022-10-08T11:58:21.421Z,1.30
2022-10-08T12:00:36.276Z,1.60
2022-10-08T12:02:44.161Z,1.45
2022-10-08T12:04:48.604Z,1.55
2022-10-08T12:07:01.544Z,1.40
2022-10-08T12:09:05.656Z,1.52
2022-10-08T12:11:40.602Z,1.30
2022-10-08T12:13:42.912Z,1.33
2022-10-08T12:15:45.173Z,1.50
2022-10-08T12:17:54.717Z,1.40
2022-10-08T12:20:05.735Z,1.48
2022-10-08T12:22:17.696Z,1.60
2022-10-08T12:24:39.882Z,1.25
2022-10-08T12:27:02.267Z,1.13
2022-10-08T12:29:04.544Z,1.30
2022-10-08T12:31:27.499Z,1.33
2022-10-08T12:33:30.539Z,1.33
2022-10-08T12:35:35.270Z,1.40
2022-10-08T12:37:46.191Z,1.40
2022-10-08T12:39:49.108Z,1.33
2022-10-08T12:41:59.811Z,1.30
2022-10-08T12:44:09.273Z,1.10
2022-10-08T12:46:30.570Z,1.20
2022-10-08T12:48:40.457Z,1.20
2022-10-08T12:50:48.487Z,1.27
2022-10-08T12:52:50.963Z,1.23
2022-10-08T12:54:54.682Z,1.23
2022-10-08T12:56:57.223Z,1.15
2022-10-08T12:59:02.319Z,1.30
2022-10-08T13:01:06.143Z,1.10
2022-10-08T13:03:17.572Z,1.13
2022-10-08T13:05:31.793Z,1.60
2022-10-08T13:07:35.448Z,1.40
2022-10-08T13:09:37.971Z,1.75
2022-10-08T13:11:40.256Z,1.30
2022-10-08T13:13:44.942Z,1.10
2022-10-08T13:15:59.229Z,1.20
2022-10-08T13:18:12.246Z,1.63
2022-10-08T13:20:19.584Z,1.38
2022-10-08T13:22:21.827Z,1.20
2022-10-08T13:24:25.460Z,1.33
2022-10-08T13:26:37.831Z,1.20
2022-10-08T13:28:59.315Z,1.10
2022-10-08T13:31:02.441Z,1.33
2022-10-08T13:33:05.946Z,1.20
2022-10-08T13:35:20.620Z,1.33
2022-10-08T13:37:23.024Z,1.30
2022-10-08T13:39:27.025Z,1.10
2022-10-08T13:41:29.312Z,1.10
2022-10-08T13:43:31.820Z,1.35
2022-10-08T13:45:37.052Z,1.02
2022-10-08T13:47:39.346Z,1.13
2022-10-08T13:49:41.611Z,1.10
2022-10-08T13:51:43.881Z,1.15
2022-10-08T13:53:46.201Z,1.00
2022-10-08T13:55:49.600Z,1.23
2022-10-08T13:57:51.869Z,1.30
2022-10-08T13:59:54.147Z,1.00
2022-10-08T14:01:56.594Z,1.27
2022-10-08T14:03:58.926Z,1.20
2022-10-08T14:06:01.194Z,1.02
2022-10-08T14:08:05.072Z,1.40
2022-10-08T14:10:07.578Z,1.40
2022-10-08T14:12:10.030Z,1.00
2022-10-08T14:14:15.755Z,1.10
2022-10-08T14:16:18.047Z,1.23
2022-10-08T14:18:20.419Z,1.08
2022-10-08T14:20:22.701Z,1.33
2022-10-08T14:22:25.583Z,1.02
2022-10-08T14:24:28.515Z,1.15
2022-10-08T14:26:30.735Z,1.25
2022-10-08T14:28:33.048Z,1.20
2022-10-08T14:30:35.369Z,1.23
2022-10-08T14:32:37.665Z,1.10
2022-10-08T14:34:39.971Z,1.30
2022-10-08T14:36:42.764Z,1.15
2022-10-08T14:38:45.153Z,1.10
2022-10-08T14:40:47.367Z,1.15
2022-10-08T14:42:50.444Z,1.10
2022-10-08T14:44:53.399Z,0.98
2022-10-08T14:46:55.707Z,1.15
2022-10-08T14:48:58.100Z,1.10
2022-10-08T14:51:00.749Z,0.90
2022-10-08T14:53:02.960Z,1.15
2022-10-08T14:55:05.856Z,1.10
2022-10-08T14:57:08.272Z,1.20
2022-10-08T14:59:11.181Z,1.10
2022-10-08T15:01:13.467Z,0.88
2022-10-08T15:03:15.711Z,1.08
2022-10-08T15:05:17.939Z,1.17
2022-10-08T15:07:20.183Z,0.95
2022-10-08T15:09:22.658Z,1.10
2022-10-08T15:11:24.907Z,1.00
2022-10-08T15:13:27.139Z,1.38
2022-10-08T15:15:29.413Z,1.08
2022-10-08T15:17:31.692Z,0.88
2022-10-08T15:19:34.022Z,0.90
2022-10-08T15:21:36.482Z,1.13
2022-10-08T15:23:38.882Z,1.02
2022-10-08T15:25:41.175Z,1.33
2022-10-08T15:27:43.605Z,1.20
2022-10-08T15:29:45.838Z,1.17
2022-10-08T15:31:50.799Z,1.17
2022-10-08T15:33:54.121Z,0.90
2022-10-08T15:35:56.451Z,1.27
2022-10-08T15:37:58.690Z,1.10
2022-10-08T15:40:00.941Z,1.10
2022-10-08T15:42:03.200Z,0.90
2022-10-08T15:44:18.234Z,0.90
2022-10-08T15:46:20.941Z,1.05
2022-10-08T15:48:23.192Z,0.93
2022-10-08T15:50:25.481Z,0.88
2022-10-08T15:52:27.803Z,1.05
2022-10-08T15:54:30.137Z,1.10
2022-10-08T15:56:32.447Z,1.00
2022-10-08T15:58:53.207Z,1.33
2022-10-08T16:00:55.506Z,1.02
2022-10-08T16:02:57.995Z,1.02
2022-10-08T16:05:00.266Z,1.17
2022-10-08T16:07:02.517Z,1.02
2022-10-08T16:09:05.336Z,1.05
2022-10-08T16:11:24.562Z,1.27
2022-10-08T16:13:26.872Z,1.10
2022-10-08T16:15:29.126Z,0.95
2022-10-08T16:17:31.379Z,0.80
2022-10-08T16:19:33.595Z,1.00
2022-10-08T16:21:37.227Z,0.90
2022-10-08T16:23:39.785Z,1.40
2022-10-08T16:25:45.420Z,1.20
2022-10-08T16:27:47.995Z,1.35
2022-10-08T16:29:50.473Z,0.95
2022-10-08T16:31:52.945Z,0.90
2022-10-08T16:33:59.169Z,1.40
2022-10-08T16:36:05.643Z,1.10
2022-10-08T16:38:07.994Z,1.13
2022-10-08T16:40:10.463Z,1.00
2022-10-08T16:42:12.695Z,1.08
2022-10-08T16:44:16.072Z,1.05
2022-10-08T16:46:25.855Z,1.02
2022-10-08T16:48:28.158Z,1.30
2022-10-08T16:50:30.523Z,1.10
2022-10-08T16:52:32.770Z,1.20
2022-10-08T16:54:35.064Z,1.10
2022-10-08T16:56:38.352Z,1.27
2022-10-08T16:58:40.585Z,1.30
2022-10-08T17:00:42.824Z,1.40
2022-10-08T17:02:45.310Z,1.60
2022-10-08T17:04:47.829Z,1.55
2022-10-08T17:06:50.113Z,1.38
2022-10-08T17:08:52.880Z,1.60
2022-10-08T17:10:55.200Z,1.55
2022-10-08T17:12:57.458Z,1.77
2022-10-08T17:14:59.708Z,1.90
2022-10-08T17:17:02.014Z,1.40
2022-10-08T17:19:04.717Z,1.98
2022-10-08T17:21:07.734Z,1.98
2022-10-08T17:23:10.498Z,2.10
2022-10-08T17:25:13.050Z,1.63
2022-10-08T17:27:15.271Z,2.00
2022-10-08T17:29:17.708Z,2.20
2022-10-08T17:31:22.427Z,1.65
2022-10-08T17:33:24.690Z,1.60
2022-10-08T17:35:27.094Z,1.45
2022-10-08T17:37:29.312Z,1.73
2022-10-08T17:39:32.603Z,1.50
2022-10-08T17:41:35.829Z,1.70
2022-10-08T17:43:38.062Z,2.20
2022-10-08T17:45:40.331Z,2.08
2022-10-08T17:47:42.585Z,2.55
2022-10-08T17:49:44.940Z,4.65
2022-10-08T17:51:47.654Z,3.00
2022-10-08T17:53:54.231Z,2.00
2022-10-08T17:56:04.056Z,3.13
2022-10-08T17:58:06.307Z,3.83
2022-10-08T18:00:08.910Z,4.07
2022-10-08T18:02:11.236Z,3.22
2022-10-08T18:04:15.086Z,2.35
2022-10-08T18:06:17.459Z,1.90
2022-10-08T18:08:19.669Z,2.50
2022-10-08T18:10:21.919Z,3.10
2022-10-08T18:12:24.149Z,2.70
2022-10-08T18:14:26.470Z,3.08
2022-10-08T18:16:28.950Z,2.55
2022-10-08T18:18:31.381Z,2.88
2022-10-08T18:20:33.635Z,2.70
2022-10-08T18:22:35.874Z,3.17
2022-10-08T18:24:38.274Z,2.60
2022-10-08T18:26:40.517Z,2.83
2022-10-08T18:28:42.883Z,3.25
2022-10-08T18:30:45.330Z,2.83
2022-10-08T18:32:47.763Z,3.00
2022-10-08T18:34:50.856Z,2.40
2022-10-08T18:36:53.133Z,2.53
2022-10-08T18:38:59.281Z,2.90
2022-10-08T18:41:01.506Z,2.70
2022-10-08T18:43:03.969Z,3.05
2022-10-08T18:45:06.393Z,2.33
2022-10-08T18:47:08.644Z,3.20
2022-10-08T18:49:13.000Z,2.83
2022-10-08T18:51:20.039Z,2.88
2022-10-08T18:53:22.368Z,2.90
2022-10-08T18:55:24.647Z,2.97
2022-10-08T18:57:26.885Z,2.55
2022-10-08T18:59:31.039Z,2.30
2022-10-08T19:01:34.770Z,2.70
2022-10-08T19:03:37.181Z,2.08
2022-10-08T19:05:39.828Z,2.75
2022-10-08T19:07:42.052Z,2.55
2022-10-08T19:09:44.506Z,2.97
2022-10-08T19:11:48.370Z,2.70
2022-10-08T19:13:52.778Z,2.67
2022-10-08T19:15:55.074Z,2.50
2022-10-08T19:17:57.362Z,2.53
2022-10-08T19:19:59.566Z,3.22
2022-10-08T19:22:01.890Z,3.28
2022-10-08T19:24:04.210Z,6.22
2022-10-08T19:26:06.809Z,4.85
2022-10-08T19:28:09.115Z,4.68
2022-10-08T19:30:11.595Z,3.63
2022-10-08T19:32:13.845Z,3.45
2022-10-08T19:34:17.421Z,3.45
2022-10-08T19:36:20.582Z,3.50
2022-10-08T19:38:22.997Z,3.45
2022-10-08T19:40:25.292Z,3.30
2022-10-08T19:42:27.585Z,2.97
2022-10-08T19:44:29.910Z,3.15
2022-10-08T19:46:32.680Z,2.70
2022-10-08T19:48:34.985Z,2.70
2022-10-08T19:50:37.440Z,2.90
2022-10-08T19:52:39.692Z,2.80
2022-10-08T19:54:42.626Z,2.97
2022-10-08T19:56:44.876Z,3.15
2022-10-08T19:58:49.662Z,2.67
2022-10-08T20:01:00.436Z,2.90
2022-10-08T20:03:02.735Z,2.88
2022-10-08T20:05:05.297Z,3.03
2022-10-08T20:07:07.544Z,2.78
2022-10-08T20:09:12.052Z,2.70
2022-10-08T20:11:16.161Z,3.17
2022-10-08T20:13:18.398Z,3.45
2022-10-08T20:15:21.189Z,3.42
2022-10-08T20:17:23.488Z,3.15
2022-10-08T20:19:25.742Z,3.40
2022-10-08T20:21:29.082Z,3.03
2022-10-08T20:23:31.528Z,3.45
2022-10-08T20:25:33.801Z,3.00
2022-10-08T20:27:36.034Z,3.00
2022-10-08T20:29:38.563Z,3.42
2022-10-08T20:31:43.027Z,3.65
2022-10-08T20:33:45.958Z,2.83
2022-10-08T20:35:48.207Z,3.00
2022-10-08T20:37:50.427Z,2.72
2022-10-08T20:39:52.788Z,3.30
2022-10-08T20:41:55.359Z,3.30
2022-10-08T20:44:00.394Z,3.38
2022-10-08T20:46:06.277Z,2.78
2022-10-08T20:48:08.658Z,3.05
2022-10-08T20:50:11.150Z,2.75
2022-10-08T20:52:13.515Z,3.00
2022-10-08T20:54:16.738Z,2.72
2022-10-08T20:56:19.006Z,3.08
2022-10-08T20:58:21.273Z,3.42
2022-10-08T21:00:23.541Z,3.15
2022-10-08T21:02:26.467Z,3.42
2022-10-08T21:04:28.809Z,3.10
2022-10-08T21:06:32.083Z,2.83
2022-10-08T21:08:42.485Z,3.00
2022-10-08T21:10:44.691Z,3.20
2022-10-08T21:12:47.157Z,3.50
2022-10-08T21:14:49.603Z,3.50
2022-10-08T21:16:53.433Z,2.97
2022-10-08T21:19:02.769Z,3.20
2022-10-08T21:21:07.614Z,2.95
2022-10-08T21:23:09.914Z,3.25
2022-10-08T21:25:12.221Z,2.83
2022-10-08T21:27:14.509Z,2.63
2022-10-08T21:29:16.848Z,3.00
2022-10-08T21:31:20.885Z,3.17
2022-10-08T21:33:23.179Z,3.20
2022-10-08T21:35:25.453Z,3.38
2022-10-08T21:37:27.690Z,3.13
2022-10-08T21:39:29.916Z,3.92
2022-10-08T21:41:33.344Z,3.08
2022-10-08T21:43:35.581Z,3.25
2022-10-08T21:45:37.867Z,3.33
2022-10-08T21:47:40.304Z,3.90
2022-10-08T21:49:42.581Z,3.55
2022-10-08T21:51:45.220Z,3.30
2022-10-08T21:53:48.516Z,3.28
2022-10-08T21:55:57.366Z,3.00
2022-10-08T21:57:59.591Z,3.08
2022-10-08T22:00:01.820Z,2.78
2022-10-08T22:02:04.193Z,3.53
2022-10-08T22:04:08.217Z,3.30
2022-10-08T22:06:10.514Z,3.10
2022-10-08T22:08:12.755Z,2.97
2022-10-08T22:10:15.060Z,3.05
2022-10-08T22:12:17.321Z,3.17
2022-10-08T22:14:19.990Z,3.00
2022-10-08T22:16:23.028Z,3.00
2022-10-08T22:18:27.051Z,3.30
2022-10-08T22:20:29.949Z,3.33
2022-10-08T22:22:32.214Z,2.95
2022-10-08T22:24:36.203Z,3.10
2022-10-08T22:26:40.134Z,2.35
2022-10-08T22:28:42.878Z,3.47
2022-10-08T22:30:45.215Z,3.30
2022-10-08T22:32:47.681Z,3.10
2022-10-08T22:34:50.080Z,3.05
2022-10-08T22:36:52.320Z,3.13
2022-10-08T22:38:54.848Z,2.95
2022-10-08T22:41:07.557Z,3.00
2022-10-08T22:43:09.996Z,3.40
2022-10-08T22:45:12.307Z,2.83
2022-10-08T22:47:14.538Z,2.80
2022-10-08T22:49:16.840Z,3.30
2022-10-08T22:51:22.137Z,3.03
2022-10-08T22:53:24.397Z,3.20
2022-10-08T22:55:27.462Z,2.95
2022-10-08T22:57:29.716Z,2.97
2022-10-08T22:59:32.012Z,3.00
2022-10-08T23:01:34.251Z,3.00
2022-10-08T23:03:36.903Z,3.03
2022-10-08T23:05:39.183Z,2.90
2022-10-08T23:07:41.534Z,2.72
2022-10-08T23:09:43.759Z,2.85
2022-10-08T23:11:46.154Z,3.22
2022-10-08T23:13:56.179Z,2.90
2022-10-08T23:15:59.372Z,3.17
2022-10-08T23:18:01.604Z,3.03
2022-10-08T23:20:04.041Z,3.15
2022-10-08T23:22:06.495Z,3.20
2022-10-08T23:24:08.833Z,3.38
2022-10-08T23:26:11.099Z,3.47
2022-10-08T23:28:13.437Z,3.08
2022-10-08T23:30:38.455Z,3.10
2022-10-08T23:32:37.970Z,3.17
2022-10-08T23:34:40.207Z,3.00
2022-10-08T23:36:43.491Z,3.50
2022-10-08T23:38:46.217Z,3.22
2022-10-08T23:40:48.481Z,3.50
2022-10-08T23:42:51.067Z,2.75
2022-10-08T23:44:53.521Z,3.15
2022-10-08T23:46:55.766Z,3.75
2022-10-08T23:48:58.946Z,3.00
2022-10-08T23:51:01.226Z,3.17
2022-10-08T23:53:03.473Z,3.05
2022-10-08T23:55:05.947Z,3.38
2022-10-08T23:57:08.191Z,4.00
2022-10-08T23:59:10.475Z,3.30
